Home > Products > Valid Products > TAF

000
FTUS43 KLMK 060500
TAFSDF
TAF
KSDF 060520Z 0606/0712 VRB04KT P6SM SKC=



000
FTUS43 KLMK 060500
TAFLEX
TAF
KLEX 060520Z 0606/0706 VRB04KT P6SM SKC=



000
FTUS43 KLMK 060500
TAFBWG
TAF
KBWG 060520Z 0606/0706 VRB03KT P6SM SKC=



000
FTUS43 KLMK 060100 AAA
TAFLEX
TAF AMD
KLEX 060130Z 0602/0624 01005KT P6SM BKN030
     FM060300 VRB03KT P6SM SKC=



000
FTUS43 KLMK 060100 AAA
TAFLEX
TAF AMD
KLEX 060130Z 0602/0624 01005KT P6SM BKN030
     FM060300 VRB03KT P6SM SKC=



000
FTUS43 KLMK 052300
TAFSDF
TAF
KSDF 052320Z 0600/0706 34007KT P6SM SCT015
     FM060600 VRB03KT P6SM SKC=



000
FTUS43 KLMK 052300
TAFBWG
TAF
KBWG 052320Z 0600/0624 32009KT P6SM SCT025
     FM060600 VRB03KT P6SM SKC=



000
FTUS43 KLMK 052300
TAFLEX
TAF
KLEX 052320Z 0600/0624 01005KT P6SM BKN028
     FM060600 VRB03KT P6SM SKC=



000
FTUS43 KLMK 051900 AAA
TAFBWG
TAF AMD
KBWG 051945Z 0520/0618 34008KT P6SM BKN025
     FM052100 01008KT P6SM SCT050
     FM060000 VRB03KT P6SM SCT020=



000
FTUS43 KLMK 051700
TAFSDF
TAF
KSDF 051724Z 0518/0624 36010KT P6SM OVC080
     FM051900 34008KT P6SM SCT040
     FM052000 VRB03KT P6SM SCT020=



000
FTUS43 KLMK 051700
TAFLEX
TAF
KLEX 051724Z 0518/0618 35009KT P6SM BKN015
     FM052000 36008KT P6SM BKN025
     FM060000 VRB04KT P6SM SCT020=



000
FTUS43 KLMK 051700
TAFBWG
TAF
KBWG 051724Z 0518/0618 01008KT P6SM BKN025
     FM051900 01008KT P6SM SCT050
     FM060000 VRB03KT P6SM SCT020=



000
FTUS43 KLMK 051700 AAD
TAFBWG
TAF AMD
KBWG 051717Z 0517/0612 36009KT P6SM BKN018
     FM051800 01008KT P6SM BKN025
     FM051900 01008KT P6SM BKN050
     FM060000 01003KT P6SM OVC012=



000
FTUS43 KLMK 051700 AAD
TAFBWG
TAF AMD
KBWG 051717Z 0517/0612 36009KT P6SM BKN018
     FM051800 01008KT P6SM BKN025
     FM051900 01008KT P6SM BKN050
     FM060000 01003KT P6SM OVC012=



000
FTUS43 KLMK 051500 AAC
TAFBWG
TAF AMD
KBWG 051538Z 0516/0612 36008KT P6SM BKN050
      TEMPO 0516/0517 4SM BR
     FM060000 01003KT P6SM OVC012=



000
FTUS43 KLMK 051400 AAB
TAFBWG
TAF AMD
KBWG 051442Z 0515/0612 02013KT 1 1/2SM -SN BR OVC030
      TEMPO 0515/0516 1/2SM SN BKN017
     FM051600 35008KT 4SM BR BKN018
     FM060000 01003KT P6SM OVC012=



000
FTUS43 KLMK 051400 AAB
TAFBWG
TAF AMD
KBWG 051442Z 0515/0612 02013KT 1 1/2SM -SN BR OVC030
      TEMPO 0515/0516 1/2SM SN BKN017
     FM051600 35008KT 4SM BR BKN018
     FM060000 01003KT P6SM OVC012=



000
FTUS43 KLMK 051400 AAB
TAFLEX
TAF AMD
KLEX 051440Z 0515/0612 01012KT 1 1/2SM -SN BR OVC015
      TEMPO 0515/0517 1/2SM SN BKN009
     FM051800 35009KT 3SM BR BKN025
     FM060000 02005KT P6SM SCT020=



000
FTUS43 KLMK 051400 AAA
TAFSDF
TAF AMD
KSDF 051440Z 0515/0618 03010KT P6SM OVC070
     FM052100 35005KT P6SM SCT020=



000
FTUS43 KLMK 051400 AAB
TAFLEX
TAF AMD
KLEX 051440Z 0515/0612 01012KT 1 1/2SM -SN BR OVC015
      TEMPO 0515/0517 1/2SM SN BKN009
     FM051800 35009KT 3SM BR BKN025
     FM060000 02005KT P6SM SCT020=



000
FTUS43 KLMK 051200 AAA
TAFBWG
TAF AMD
KBWG 051243Z 0513/0612 02013KT 1SM -SN BR OVC009
      TEMPO 0513/0514 1/2SM SN
     FM051600 35008KT 4SM BR BKN018
     FM060000 01003KT P6SM OVC012=



000
FTUS43 KLMK 051200 AAA
TAFLEX
TAF AMD
KLEX 051242Z 0513/0612 01012KT 2SM -SN BR OVC015
      TEMPO 0513/0515 1/2SM SN BKN009
     FM051800 35009KT 3SM BR BKN025
     FM060000 02005KT P6SM SCT020=



000
FTUS43 KLMK 051100
TAFLEX
TAF
KLEX 051120Z 0512/0612 01012KT 2SM -SN OVC015
     FM051800 35009KT 3SM BR BKN025
     FM060000 02005KT P6SM SCT020=



000
FTUS43 KLMK 051100
TAFSDF
TAF
KSDF 051120Z 0512/0618 36010KT 1SM -SN BR OVC015
     FM051300 36010KT 2SM BR OVC021
     FM052100 35005KT P6SM SCT020=



000
FTUS43 KLMK 051100
TAFBWG
TAF
KBWG 051120Z 0512/0612 02013KT 1SM -SN BR OVC009
     FM051600 35008KT 4SM BR BKN018
     FM060000 01003KT P6SM OVC012=



000
FTUS43 KLMK 050900 AAB
TAFBWG
TAF AMD
KBWG 050929Z 0509/0606 35010KT 1/2SM SN FZFG OVC011
     FM051200 02013KT 2SM -SN BR OVC009
     FM051700 36005KT P6SM BKN025=



000
FTUS43 KLMK 050900 AAB
TAFSDF
TAF AMD
KSDF 050928Z 0509/0612 36013KT 3/4SM -SN BR VV012
     FM051100 36010KT 2SM -SN BR OVC015
     FM051200 35007KT P6SM BKN022
     FM052300 33009KT P6SM SCT025=



000
FTUS43 KLMK 050600 AAA
TAFBWG
TAF AMD
KBWG 050658Z 0507/0606 35010KT 3/4SM -SN BR OVC015
     FM051100 02013KT 2SM -SN BR OVC009
     FM051700 36005KT P6SM BKN025=



000
FTUS43 KLMK 050600 AAA
TAFBWG
TAF AMD
KBWG 050658Z 0507/0606 35010KT 3/4SM -SN BR OVC015
     FM051100 02013KT 2SM -SN BR OVC009
     FM051700 36005KT P6SM BKN025=



000
FTUS43 KLMK 050500 AAA
TAFSDF
TAF AMD
KSDF 050555Z 0506/0612 36013G20KT 3/4SM -SN BR VV006
     FM050700 36010KT 2SM -SN BR BKN015
     FM051200 35007KT P6SM BKN022
     FM052300 33009KT P6SM SCT025=



000
FTUS43 KLMK 050500 AAA
TAFSDF
TAF AMD
KSDF 050555Z 0506/0612 36013G20KT 3/4SM -SN BR VV006
     FM050700 36010KT 2SM -SN BR BKN015
     FM051200 35007KT P6SM BKN022
     FM052300 33009KT P6SM SCT025=



000
FTUS43 KLMK 050500
TAFSDF
TAF
KSDF 050520Z 0506/0612 36013G20KT 1/4SM SN FG VV006
     FM050700 36010KT 2SM -SN BR BKN015
     FM051200 35007KT P6SM BKN022
     FM052300 33009KT P6SM SCT025=



000
FTUS43 KLMK 050500
TAFBWG
TAF
KBWG 050520Z 0506/0606 35012G20KT 1/2SM SN FZFG BKN008
     FM051100 02013KT 2SM -SN BR OVC009
     FM051700 36005KT P6SM BKN025=



000
FTUS43 KLMK 050500
TAFLEX
TAF
KLEX 050520Z 0506/0606 36010G20KT 3/4SM -SN BR OVC009
     FM051200 01009KT 2SM -SN BKN019
     FM051900 35009KT P6SM BKN025=



000
FTUS43 KLMK 050500
TAFSDF
TAF
KSDF 050520Z 0506/0612 36013G20KT 1/4SM SN FG VV006
     FM050700 36010KT 2SM -SN BR BKN015
     FM051200 35007KT P6SM BKN022
     FM052300 33009KT P6SM SCT025=



000
FTUS43 KLMK 050500
TAFLEX
TAF
KLEX 050520Z 0506/0606 36010G20KT 3/4SM -SN BR OVC009
     FM051200 01009KT 2SM -SN BKN019
     FM051900 35009KT P6SM BKN025=



000
FTUS43 KLMK 050500
TAFBWG
TAF
KBWG 050520Z 0506/0606 35012G20KT 1/2SM SN FZFG BKN008
     FM051100 02013KT 2SM -SN BR OVC009
     FM051700 36005KT P6SM BKN025=



000
FTUS43 KLMK 050500 AAE
TAFSDF
TAF AMD
KSDF 050513Z 0505/0606 36013KT 3/4SM -SN BR VV006
     FM050800 35008KT 3SM -SN BR BKN015
     FM051300 35007KT P6SM BKN025
     FM052300 33009KT P6SM SCT025=



000
FTUS43 KLMK 050500 AAE
TAFSDF
TAF AMD
KSDF 050513Z 0505/0606 36013KT 3/4SM -SN BR VV006
     FM050800 35008KT 3SM -SN BR BKN015
     FM051300 35007KT P6SM BKN025
     FM052300 33009KT P6SM SCT025=



000
FTUS43 KLMK 050400 AAD
TAFSDF
TAF AMD
KSDF 050405Z 0504/0606 36013KT 1/4SM SN FG VV006
     FM050800 35008KT 3SM -SN BR BKN015
     FM051300 35007KT P6SM BKN025
     FM052300 33009KT P6SM SCT025=



000
FTUS43 KLMK 050300 AAC
TAFLEX
TAF AMD
KLEX 050359Z 0504/0524 36010KT 1/2SM SN FZFG OVC006
     FM051200 36009KT 3SM -SN BKN010
     FM051500 01009KT P6SM BKN025=



000
FTUS43 KLMK 050300 AAC
TAFLEX
TAF AMD
KLEX 050359Z 0504/0524 36010KT 1/2SM SN FZFG OVC006
     FM051200 36009KT 3SM -SN BKN010
     FM051500 01009KT P6SM BKN025=



000
FTUS43 KLMK 050300 AAB
TAFLEX
TAF AMD
KLEX 050334Z 0504/0524 36010KT 3/4SM -SN BR OVC008
     FM051200 36009KT 3SM -SN BKN010
     FM051500 01009KT P6SM BKN025=



000
FTUS43 KLMK 050300 AAA
TAFLEX
TAF AMD
KLEX 050318Z 0503/0524 36010KT 1/2SM SN FG BKN009
     FM051200 36009KT 3SM -SN BKN010
     FM051500 01009KT P6SM BKN025=



000
FTUS43 KLMK 050200 AAB
TAFBWG
TAF AMD
KBWG 050238Z 0503/0524 36011G20KT 1SM -FZRAPL BR OVC010
     FM050300 36015KT 3/4SM PLSN OVC009
     FM050400 36011KT 1/2SM SN BKN008
     FM051100 02013KT 4SM -SN BR BKN018
     FM051400 36009KT P6SM BKN025=



000
FTUS43 KLMK 050200 AAC
TAFSDF
TAF AMD
KSDF 050204Z 0502/0606 36013KT 1/2SM SN FG VV007
     FM050800 35008KT 3SM -SN BR BKN015
     FM051300 35007KT P6SM BKN025
     FM052300 33009KT P6SM SCT025=



000
FTUS43 KLMK 050100 AAB
TAFSDF
TAF AMD
KSDF 050110Z 0501/0606 36013KT 1/2SM SN FG VV006
     FM050800 35008KT 3SM -SN BR BKN015
     FM051300 35007KT P6SM BKN025
     FM052300 33009KT P6SM SCT025=



000
FTUS43 KLMK 042300 AAA
TAFSDF
TAF AMD
KSDF 042341Z 0500/0606 36012KT 1/2SM SN FG BKN008
      TEMPO 0500/0504 1/4SM +SN FG BKN004
     FM050800 35008KT 3SM -SN BR BKN015
     FM051300 35007KT P6SM BKN025
     FM052300 33009KT P6SM SCT025=



000
FTUS43 KLMK 042300 AAA
TAFSDF
TAF AMD
KSDF 042341Z 0500/0606 36012KT 1/2SM SN FG BKN008
      TEMPO 0500/0504 1/4SM +SN FG BKN004
     FM050800 35008KT 3SM -SN BR BKN015
     FM051300 35007KT P6SM BKN025
     FM052300 33009KT P6SM SCT025=



000
FTUS43 KLMK 042300 AAA
TAFSDF
TAF AMD
KSDF 042337Z 0500/0606 36012KT 1/2SM SN FG BKN008
      TEMPO 0500/0504 1/4SM +SN FG BKN004
     FM051000 35008KT 3SM -SN BR BKN015
     FM051300 35007KT P6SM BKN025
     FM052300 33009KT P6SM SCT025=



000
FTUS43 KLMK 042300 AAA
TAFSDF
TAF AMD
KSDF 042337Z 0500/0606 36012KT 1/2SM SN FG BKN008
      TEMPO 0500/0504 1/4SM +SN FG BKN004
     FM051000 35008KT 3SM -SN BR BKN015
     FM051300 35007KT P6SM BKN025
     FM052300 33009KT P6SM SCT025=



000
FTUS43 KLMK 042300 AAA
TAFBWG
TAF AMD
KBWG 042337Z 0500/0524 36006KT 3SM -RAPL BR BKN008
     FM050100 36011KT 3/4SM -SN BR BKN008
     FM050400 36011KT 1/2SM SN BKN008
     FM051100 02013KT 4SM -SN BR BKN018
     FM051400 36009KT P6SM BKN025=



000
FTUS43 KLMK 042300 AAA
TAFBWG
TAF AMD
KBWG 042337Z 0500/0524 36006KT 3SM -RAPL BR BKN008
     FM050100 36011KT 3/4SM -SN BR BKN008
     FM050400 36011KT 1/2SM SN BKN008
     FM051100 02013KT 4SM -SN BR BKN018
     FM051400 36009KT P6SM BKN025=



000
FTUS43 KLMK 042300
TAFBWG
TAF
KBWG 042324Z 0500/0524 36006KT 1SM -SNPL BR BKN008
     FM050200 36011KT 3/4SM -SN BR BKN008
     FM050400 36011KT 1/2SM SN BKN008
     FM051100 02013KT 4SM -SN BR BKN018
     FM051400 36009KT P6SM BKN025=



000
FTUS43 KLMK 042300
TAFLEX
TAF
KLEX 042324Z 0500/0524 36010KT 2SM -SNPL BR BKN009
     FM050100 36010KT 1/2SM SN FG BKN009
      TEMPO 0501/0505 1/4SM +SN FG BKN007
     FM051200 36009KT 3SM -SN BKN010
     FM051500 01009KT P6SM BKN025=



000
FTUS43 KLMK 042300
TAFSDF
TAF
KSDF 042324Z 0500/0606 36012KT 1/2SM SN FG BKN008
      TEMPO 0500/0504 1/4SM +SN FG BKN007
     FM051000 35008KT 3SM -SN BR BKN015
     FM051300 35007KT P6SM BKN025
     FM052300 33009KT P6SM SCT025=



000
FTUS43 KLMK 042300
TAFSDF
TAF
KSDF 042324Z 0500/0606 36012KT 1/2SM SN FG BKN008
      TEMPO 0500/0504 1/4SM +SN FG BKN007
     FM051000 35008KT 3SM -SN BR BKN015
     FM051300 35007KT P6SM BKN025
     FM052300 33009KT P6SM SCT025=



000
FTUS43 KLMK 042300
TAFLEX
TAF
KLEX 042324Z 0500/0524 36010KT 2SM -SNPL BR BKN009
     FM050100 36010KT 1/2SM SN FG BKN009
      TEMPO 0501/0505 1/4SM +SN FG BKN007
     FM051200 36009KT 3SM -SN BKN010
     FM051500 01009KT P6SM BKN025=



000
FTUS43 KLMK 042100 AAB
TAFSDF
TAF AMD
KSDF 042113Z 0421/0524 36010KT 2SM -RAPL BR BKN009
     FM042200 36010KT 1SM -SNPL BR BKN009
     FM042300 36010KT 1/2SM SN FG BKN008
     FM050700 36009KT 1SM -SN BR BKN010
     FM051000 35008KT 5SM -SN BR BKN015
     FM051300 35007KT P6SM BKN025=



000
FTUS43 KLMK 042100 AAA
TAFLEX
TAF AMD
KLEX 042110Z 0421/0518 36010KT 3SM -RAPL BR BKN009
     FM042200 36010KT 1SM -SNPL BR BKN008
     FM042300 36010KT 1/2SM SN FG BKN004
     FM051000 36009KT 2SM -SN BKN009
     FM051300 01009KT 5SM -SN BKN015=



000
FTUS43 KLMK 042000 AAA
TAFSDF
TAF AMD
KSDF 042005Z 0420/0524 36009KT 2SM -RAPL BR BKN012
     FM042100 36010KT 1SM -SNPL BR BKN009
     FM042200 36010KT 1/2SM SN FG BKN008
     FM050700 36009KT 1SM -SN BR BKN010
     FM051000 35008KT 5SM -SN BR BKN015
     FM051300 35007KT P6SM BKN025=



000
FTUS43 KLMK 042000 AAA
TAFSDF
TAF AMD
KSDF 042005Z 0420/0524 36009KT 2SM -RAPL BR BKN012
     FM042100 36010KT 1SM -SNPL BR BKN009
     FM042200 36010KT 1/2SM SN FG BKN008
     FM050700 36009KT 1SM -SN BR BKN010
     FM051000 35008KT 5SM -SN BR BKN015
     FM051300 35007KT P6SM BKN025=



000
FTUS43 KLMK 041700
TAFBWG
TAF
KBWG 041737Z 0418/0518 35006KT 3SM -RA BR BKN007
     FM042300 36009KT 2SM -RAPL BR BKN008
     FM050000 36009KT 1SM -SNPL BR BKN008
     FM050200 36011KT 3/4SM -SN BR BKN008
     FM051000 34013KT 4SM -SN BR BKN018
     FM051400 36009KT P6SM BKN025=



000
FTUS43 KLMK 041700
TAFSDF
TAF
KSDF 041737Z 0418/0524 35013KT 2SM -RAPL BR BKN008
     FM042000 36009KT 2SM -SNPL BR BKN008
     FM042200 36010KT 1/2SM SN FG BKN008
     FM050700 36009KT 1SM -SN BR BKN010
     FM051000 35008KT 5SM -SN BR BKN015
     FM051300 35007KT P6SM BKN025=



000
FTUS43 KLMK 041700
TAFLEX
TAF
KLEX 041737Z 0418/0518 36009KT 3SM -RA BR BKN006
     FM042000 36009KT 2SM -RAPL BR BKN006
     FM042100 36010KT 1SM -SNPL BR BKN004
     FM042300 36010KT 1/2SM SN FG BKN004
     FM051000 36009KT 2SM -SN BKN009
     FM051300 01009KT 5SM -SN BKN015=



000
FTUS43 KLMK 041700
TAFLEX
TAF
KLEX 041737Z 0418/0518 36009KT 3SM -RA BR BKN006
     FM042000 36009KT 2SM -RAPL BR BKN006
     FM042100 36010KT 1SM -SNPL BR BKN004
     FM042300 36010KT 1/2SM SN FG BKN004
     FM051000 36009KT 2SM -SN BKN009
     FM051300 01009KT 5SM -SN BKN015=



000
FTUS43 KLMK 041700
TAFSDF
TAF
KSDF 041737Z 0418/0524 35013KT 2SM -RAPL BR BKN008
     FM042000 36009KT 2SM -SNPL BR BKN008
     FM042200 36010KT 1/2SM SN FG BKN008
     FM050700 36009KT 1SM -SN BR BKN010
     FM051000 35008KT 5SM -SN BR BKN015
     FM051300 35007KT P6SM BKN025=



000
FTUS43 KLMK 041700
TAFBWG
TAF
KBWG 041737Z 0418/0518 35006KT 3SM -RA BR BKN007
     FM042300 36009KT 2SM -RAPL BR BKN008
     FM050000 36009KT 1SM -SNPL BR BKN008
     FM050200 36011KT 3/4SM -SN BR BKN008
     FM051000 34013KT 4SM -SN BR BKN018
     FM051400 36009KT P6SM BKN025=



000
FTUS43 KLMK 041500 AAA
TAFSDF
TAF AMD
KSDF 041500Z 0415/0518 36009KT 4SM -RA BR SCT007 OVC030
      TEMPO 0415/0418 2SM -RA BR BKN007 OVC030
     FM041900 35007KT 2SM -RAPL BR BKN007
     FM042100 36009KT 1SM -SNPL BR BKN008
     FM042200 36010KT 1SM -SN BR BKN008
     FM051000 36009KT 2SM -SN BR BKN010=



000
FTUS43 KLMK 041100
TAFLEX
TAF
KLEX 041120Z 0412/0512 34005KT 4SM -RA BR SCT008 BKN040
      TEMPO 0412/0415 2SM -RA BR BKN007
     FM041500 36005KT 2SM -RA BR BKN007
     FM041800 36009KT 2SM -RAPL BR BKN007
     FM041900 36009KT 2SM -PL BR BKN007
     FM042200 36010KT 1SM -SNPL BR BKN004
     FM042300 36010KT 1SM -SN BR BKN004=



000
FTUS43 KLMK 041100
TAFSDF
TAF
KSDF 041120Z 0412/0518 33005KT 5SM -RA BR SCT007 OVC050
      TEMPO 0412/0415 2SM RA BR BKN006
     FM041600 35007KT 2SM -RAPL BR BKN007
     FM041900 36009KT 1SM -SNPL BR BKN008
     FM042100 36010KT 1SM -SN BR BKN008
     FM051000 36009KT 2SM -SN BR BKN010=



000
FTUS43 KLMK 041100
TAFBWG
TAF
KBWG 041120Z 0412/0512 35006KT 4SM -RA BR SCT006 BKN025
      TEMPO 0412/0416 2SM -RA BR BKN005
     FM041600 35006KT 3SM -RA BR BKN006
     FM042300 36009KT 2SM -RAPL BR BKN008
     FM050000 36009KT 2SM -PL BR BKN010
     FM050200 36011KT 1SM -SN BR BKN008=



000
FTUS43 KLMK 041100 AAC
TAFBWG
TAF AMD
KBWG 041113Z 0411/0506 35006KT 4SM -RA BR SCT006 BKN025
      TEMPO 0411/0415 2SM -RA BR BKN005
     FM041500 35006KT 3SM -RA BR BKN006
     FM042300 36009KT 2SM -RAPL BR BKN008
     FM050000 36009KT 2SM -PL BR BKN010
     FM050200 36011KT 1SM -SN BR BKN008=



000
FTUS43 KLMK 041100 AAC
TAFBWG
TAF AMD
KBWG 041113Z 0411/0506 35006KT 4SM -RA BR SCT006 BKN025
      TEMPO 0411/0415 2SM -RA BR BKN005
     FM041500 35006KT 3SM -RA BR BKN006
     FM042300 36009KT 2SM -RAPL BR BKN008
     FM050000 36009KT 2SM -PL BR BKN010
     FM050200 36011KT 1SM -SN BR BKN008=



000
FTUS43 KLMK 041100 AAC
TAFLEX
TAF AMD
KLEX 041111Z 0411/0506 34005KT 4SM -RA BR SCT008 BKN040
      TEMPO 0411/0415 2SM -RA BR BKN007
     FM041500 36005KT 2SM -RA BR BKN007
     FM041800 36009KT 2SM -RAPL BR BKN007
     FM041900 36009KT 2SM -PL BR BKN007
     FM042200 36010KT 1SM -SNPL BR BKN004
     FM042300 36010KT 1SM -SN BR BKN004=



000
FTUS43 KLMK 041100 AAC
TAFLEX
TAF AMD
KLEX 041111Z 0411/0506 34005KT 4SM -RA BR SCT008 BKN040
      TEMPO 0411/0415 2SM -RA BR BKN007
     FM041500 36005KT 2SM -RA BR BKN007
     FM041800 36009KT 2SM -RAPL BR BKN007
     FM041900 36009KT 2SM -PL BR BKN007
     FM042200 36010KT 1SM -SNPL BR BKN004
     FM042300 36010KT 1SM -SN BR BKN004=



000
FTUS43 KLMK 041100 AAB
TAFSDF
TAF AMD
KSDF 041110Z 0411/0512 33005KT 5SM -RA BR SCT007 OVC050
      TEMPO 0411/0415 2SM RA BR BKN006
     FM041600 35007KT 2SM -RAPL BR BKN007
     FM041900 36009KT 1SM -SNPL BR BKN008
     FM042100 36010KT 1SM -SN BR BKN008=



000
FTUS43 KLMK 041100 AAB
TAFSDF
TAF AMD
KSDF 041110Z 0411/0512 33005KT 5SM -RA BR SCT007 OVC050
      TEMPO 0411/0415 2SM RA BR BKN006
     FM041600 35007KT 2SM -RAPL BR BKN007
     FM041900 36009KT 1SM -SNPL BR BKN008
     FM042100 36010KT 1SM -SN BR BKN008=



000
FTUS43 KLMK 040900 AAB
TAFBWG
TAF AMD
KBWG 040946Z 0410/0506 35006KT 4SM -RA BR SCT006 BKN025
      TEMPO 0410/0414 2SM -RA BR BKN005
     FM042200 36009KT 2SM -RAPL BR BKN008
     FM042300 36009KT 2SM -PL BR BKN010
     FM050100 36011KT 1SM -SN BR BKN008=



000
FTUS43 KLMK 040900 AAB
TAFLEX
TAF AMD
KLEX 040943Z 0410/0506 34005KT 4SM -RA BR SCT008 BKN040
      TEMPO 0410/0414 2SM -RA BR BKN007
     FM041400 36005KT 2SM -RA BR BKN007
     FM041700 36009KT 2SM -RAPL BR BKN007
     FM041900 36009KT 2SM -PL BR BKN007
     FM042200 36010KT 1SM -SN BR BKN004=



000
FTUS43 KLMK 040900 AAA
TAFSDF
TAF AMD
KSDF 040941Z 0410/0512 33005KT 5SM -RA BR SCT007 OVC050
      TEMPO 0410/0414 2SM RA BR BKN006
     FM041500 35007KT 2SM -RAPL BR BKN007
     FM041800 36009KT 1SM -SNPL BR BKN008
     FM041900 36010KT 1SM -SN BR BKN008=



000
FTUS43 KLMK 040700 AAA
TAFBWG
TAF AMD
KBWG 040705Z 0407/0506 26009KT 6SM -SHRA BR SCT008 BKN018
      TEMPO 0407/0408 3SM -SHRA BR BKN008
     FM040800 33007KT 4SM -SHRA BR BKN006
     FM042200 36009KT 2SM -RAPL BR BKN008
     FM042300 36009KT 2SM -PL BR BKN010
     FM050100 36011KT 1SM -SN BR BKN010=



000
FTUS43 KLMK 040700 AAA
TAFBWG
TAF AMD
KBWG 040705Z 0407/0506 26009KT 6SM -SHRA BR SCT008 BKN018
      TEMPO 0407/0408 3SM -SHRA BR BKN008
     FM040800 33007KT 4SM -SHRA BR BKN006
     FM042200 36009KT 2SM -RAPL BR BKN008
     FM042300 36009KT 2SM -PL BR BKN010
     FM050100 36011KT 1SM -SN BR BKN010=



000
FTUS43 KLMK 040700 AAA
TAFLEX
TAF AMD
KLEX 040704Z 0407/0506 30006KT 6SM -RA BR SCT005 BKN010
      TEMPO 0407/0409 3SM -SHRA BR BKN005
     FM040900 33007KT 3SM -RA BR BKN006
     FM041700 36009KT 2SM -RAPL BR BKN007
     FM041900 36009KT 2SM -PL BR BKN007
     FM042200 36010KT 1SM -SN BR BKN004=



000
FTUS43 KLMK 040700 AAA
TAFLEX
TAF AMD
KLEX 040704Z 0407/0506 30006KT 6SM -RA BR SCT005 BKN010
      TEMPO 0407/0409 3SM -SHRA BR BKN005
     FM040900 33007KT 3SM -RA BR BKN006
     FM041700 36009KT 2SM -RAPL BR BKN007
     FM041900 36009KT 2SM -PL BR BKN007
     FM042200 36010KT 1SM -SN BR BKN004=



000
FTUS43 KLMK 040500
TAFSDF
TAF
KSDF 040536Z 0406/0512 31007KT 3SM RA BR SCT008 OVC015
      TEMPO 0406/0408 2SM RA BR BKN008
     FM040800 33007KT 5SM -RA BR BKN009
      TEMPO 0410/0414 2SM RA BR BKN006
     FM041500 35007KT 2SM -RAPL BR BKN007
     FM041800 36010KT 1SM -SN BR BKN008=



000
FTUS43 KLMK 040500
TAFSDF
TAF
KSDF 040536Z 0406/0512 31007KT 3SM RA BR SCT008 OVC015
      TEMPO 0406/0408 2SM RA BR BKN008
     FM040800 33007KT 5SM -RA BR BKN009
      TEMPO 0410/0414 2SM RA BR BKN006
     FM041500 35007KT 2SM -RAPL BR BKN007
     FM041800 36010KT 1SM -SN BR BKN008=



000
FTUS43 KLMK 040500
TAFBWG
TAF
KBWG 040536Z 0406/0506 26009KT 6SM -SHRA BR SCT009 BKN012
      TEMPO 0406/0408 3SM -SHRA BR BKN009
     FM040800 33007KT 4SM -SHRA BR BKN006
     FM042100 36009KT 2SM -RAPL BR BKN008
     FM042300 36009KT 2SM -PL BR BKN010
     FM050100 36011KT 1SM -SN BR BKN010=



000
FTUS43 KLMK 040500
TAFLEX
TAF
KLEX 040536Z 0406/0506 30006KT 6SM -RA BR SCT006 BKN010
      TEMPO 0406/0409 3SM -SHRA BR BKN006
     FM040900 33007KT 3SM -RA BR BKN006
     FM041600 36009KT 2SM -RAPL BR BKN007
     FM042100 36010KT 1SM -SN BR BKN004=



000
FTUS43 KLMK 040500
TAFBWG
TAF
KBWG 040536Z 0406/0506 26009KT 6SM -SHRA BR SCT009 BKN012
      TEMPO 0406/0408 3SM -SHRA BR BKN009
     FM040800 33007KT 4SM -SHRA BR BKN006
     FM042100 36009KT 2SM -RAPL BR BKN008
     FM042300 36009KT 2SM -PL BR BKN010
     FM050100 36011KT 1SM -SN BR BKN010=



000
FTUS43 KLMK 040500
TAFLEX
TAF
KLEX 040536Z 0406/0506 30006KT 6SM -RA BR SCT006 BKN010
      TEMPO 0406/0409 3SM -SHRA BR BKN006
     FM040900 33007KT 3SM -RA BR BKN006
     FM041600 36009KT 2SM -RAPL BR BKN007
     FM042100 36010KT 1SM -SN BR BKN004=



000
FTUS43 KLMK 040400 AAB
TAFSDF
TAF AMD
KSDF 040424Z 0404/0506 31007KT 2SM RA BKN008 OVC015
     FM040700 32008KT 5SM -RA BR BKN008
     FM041600 34009KT 2SM -SN BR BKN007
      TEMPO 0417/0421 3/4SM -SN VV004=



000
FTUS43 KLMK 040400 AAB
TAFSDF
TAF AMD
KSDF 040424Z 0404/0506 31007KT 2SM RA BKN008 OVC015
     FM040700 32008KT 5SM -RA BR BKN008
     FM041600 34009KT 2SM -SN BR BKN007
      TEMPO 0417/0421 3/4SM -SN VV004=



000
FTUS43 KLMK 040000 AAA
TAFBWG
TAF AMD
KBWG 040049Z 0401/0424 21012KT P6SM VCSH OVC015
     FM040400 21011KT 3SM SHRA BR BKN009
     FM041000 34008KT 5SM -RA BR BKN010
     FM041900 34008KT 2SM -SN BR OVC008=



000
FTUS43 KLMK 040000 AAA
TAFBWG
TAF AMD
KBWG 040049Z 0401/0424 21012KT P6SM VCSH OVC015
     FM040400 21011KT 3SM SHRA BR BKN009
     FM041000 34008KT 5SM -RA BR BKN010
     FM041900 34008KT 2SM -SN BR OVC008=



000
FTUS43 KLMK 040000 AAA
TAFSDF
TAF AMD
KSDF 040002Z 0400/0506 25010KT 3SM -RA BKN012 OVC020
     FM040700 32008KT 5SM -RA BR BKN008
     FM041600 34009KT 2SM -SN BR BKN007
      TEMPO 0417/0421 3/4SM -SN VV004=



000
FTUS43 KLMK 040000 AAA
TAFSDF
TAF AMD
KSDF 040002Z 0400/0506 25010KT 3SM -RA BKN012 OVC020
     FM040700 32008KT 5SM -RA BR BKN008
     FM041600 34009KT 2SM -SN BR BKN007
      TEMPO 0417/0421 3/4SM -SN VV004=



000
FTUS43 KLMK 032300
TAFBWG
TAF
KBWG 032325Z 0400/0424 21012KT P6SM VCSH SCT018 OVC025
     FM040400 21011KT 3SM SHRA BR BKN009
     FM041000 34008KT 5SM -RA BR BKN010
     FM041900 34008KT 2SM -SN BR OVC008=



000
FTUS43 KLMK 032300
TAFSDF
TAF
KSDF 032325Z 0400/0506 23014KT 3SM -RA BKN012 OVC020
     FM040700 32008KT 5SM -RA BR BKN008
     FM041600 34009KT 2SM -SN BR BKN007
      TEMPO 0417/0421 3/4SM -SN VV004=



000
FTUS43 KLMK 032300
TAFLEX
TAF
KLEX 032325Z 0400/0424 20015G22KT P6SM OVC016
     FM040200 22013KT 3SM -RA BR BKN009
     FM040800 32008KT 3SM -RA BR BKN006
     FM041700 34009KT 2SM -SN BR BKN007
      TEMPO 0418/0422 3/4SM -SN VV004=



000
FTUS43 KLMK 032300 AAA
TAFBWG
TAF AMD
KBWG 032320Z 0323/0418 21012KT P6SM VCSH SCT018 OVC025
     FM040200 21011KT 2SM SHRA BR BKN004
     FM040900 34008KT 5SM -RA BR BKN010=



000
FTUS43 KLMK 032300 AAB
TAFSDF
TAF AMD
KSDF 032304Z 0323/0424 23014G24KT P6SM VCSH OVC020
     FM032330 23012KT 3SM -RA BKN008 OVC020
     FM040700 32008KT 5SM -RA BR BKN008
     FM041600 34009KT 2SM -SN BR BKN004=



000
FTUS43 KLMK 032100 AAA
TAFLEX
TAF AMD
KLEX 032122Z 0321/0418 20015G22KT P6SM OVC012
     FM040200 22013KT 3SM -RA BR BKN004
     FM040800 32008KT 3SM -RA BR BKN006=



000
FTUS43 KLMK 032100 AAA
TAFLEX
TAF AMD
KLEX 032122Z 0321/0418 20015G22KT P6SM OVC012
     FM040200 22013KT 3SM -RA BR BKN004
     FM040800 32008KT 3SM -RA BR BKN006=



000
FTUS43 KLMK 032100 AAA
TAFBWG
TAF AMD
KBWG 032121Z 0321/0418 21014G22KT P6SM VCSH BKN015
     FM040200 21011KT 2SM SHRA BR BKN004
     FM040900 34008KT 5SM -RA BR BKN010=



000
FTUS43 KLMK 032100 AAA
TAFBWG
TAF AMD
KBWG 032121Z 0321/0418 21014G22KT P6SM VCSH BKN015
     FM040200 21011KT 2SM SHRA BR BKN004
     FM040900 34008KT 5SM -RA BR BKN010=



000
FTUS43 KLMK 032100 AAA
TAFSDF
TAF AMD
KSDF 032120Z 0321/0424 22015G25KT P6SM OVC015
     FM032300 23012KT 3SM SHRA BR BKN008
     FM040700 32008KT 5SM -RA BR BKN008
     FM041600 34009KT 2SM -SN BR BKN004=



000
FTUS43 KLMK 031700
TAFSDF
TAF
KSDF 031720Z 0318/0424 20012G17KT 3SM -SHRA BR BKN009
     FM040100 23012KT 2SM SHRA BR BKN004
     FM040700 32008KT 5SM -RA BR BKN008
     FM041600 34009KT 2SM -SN BR BKN004=



000
FTUS43 KLMK 031700
TAFLEX
TAF
KLEX 031720Z 0318/0418 20013G20KT 4SM -SHRA BR BKN008
     FM040000 22013KT 3SM -RA BR BKN004
     FM040700 32008KT 3SM -RA BR BKN006=



000
FTUS43 KLMK 031700
TAFBWG
TAF
KBWG 031720Z 0318/0418 20012G18KT P6SM VCSH BKN010
     FM040000 21011KT 2SM SHRA BR BKN004
     FM040800 34008KT 5SM -RA BR BKN010=



000
FTUS43 KLMK 031700
TAFLEX
TAF
KLEX 031720Z 0318/0418 20013G20KT 4SM -SHRA BR BKN008
     FM040000 22013KT 3SM -RA BR BKN004
     FM040700 32008KT 3SM -RA BR BKN006=



000
FTUS43 KLMK 031700
TAFSDF
TAF
KSDF 031720Z 0318/0424 20012G17KT 3SM -SHRA BR BKN009
     FM040100 23012KT 2SM SHRA BR BKN004
     FM040700 32008KT 5SM -RA BR BKN008
     FM041600 34009KT 2SM -SN BR BKN004=



000
FTUS43 KLMK 031700
TAFBWG
TAF
KBWG 031720Z 0318/0418 20012G18KT P6SM VCSH BKN010
     FM040000 21011KT 2SM SHRA BR BKN004
     FM040800 34008KT 5SM -RA BR BKN010=



000
FTUS43 KLMK 031100
TAFBWG
TAF
KBWG 031120Z 0312/0412 13005KT P6SM BKN015 BKN022
      TEMPO 0312/0314 6SM BR BKN008
     FM031400 16009KT 3SM BR VCSH BKN008
     FM031700 20013G18KT 5SM -SHRA BKN010
     FM040000 22011KT 2SM -RA BR BKN004
     FM040800 32008KT 5SM -RA BR BKN008=



000
FTUS43 KLMK 031100
TAFLEX
TAF
KLEX 031120Z 0312/0412 15009KT 6SM BR BKN015
      TEMPO 0314/0317 4SM -SHRA BR BKN008
     FM031700 20013G20KT 3SM -RA BKN008
     FM040000 22013KT 3SM -RA BR BKN004
     FM040800 31010KT 3SM -RA BR BKN005=



000
FTUS43 KLMK 031100
TAFSDF
TAF
KSDF 031120Z 0312/0418 15007KT 6SM BR VCSH BKN015
      TEMPO 0313/0317 4SM -SHRA BR BKN008
     FM031700 20012G17KT 3SM -SHRA BR BKN008
     FM040100 23012KT 2SM -RA BR BKN005
     FM040600 31010KT 5SM -RA BR BKN008=



000
FTUS43 KLMK 031100 AAA
TAFLEX
TAF AMD
KLEX 031107Z 0311/0406 13008KT P6SM SCT025 BKN035
      TEMPO 0311/0312 BKN025
     FM031200 15009KT 6SM BR BKN015
      TEMPO 0314/0317 4SM -SHRA BR BKN008
     FM031700 20013G20KT 3SM -RA BKN008
     FM040000 22013KT 3SM -RA BR BKN004=



000
FTUS43 KLMK 031100 AAA
TAFLEX
TAF AMD
KLEX 031107Z 0311/0406 13008KT P6SM SCT025 BKN035
      TEMPO 0311/0312 BKN025
     FM031200 15009KT 6SM BR BKN015
      TEMPO 0314/0317 4SM -SHRA BR BKN008
     FM031700 20013G20KT 3SM -RA BKN008
     FM040000 22013KT 3SM -RA BR BKN004=



000
FTUS43 KLMK 031100 AAA
TAFBWG
TAF AMD
KBWG 031104Z 0311/0406 13005KT P6SM BKN015 BKN022
      TEMPO 0312/0314 6SM BR BKN008
     FM031400 16009KT 3SM BR VCSH BKN008
     FM031700 20013G18KT 5SM -SHRA BKN010
     FM040000 22011KT 2SM -RA BR BKN004=



000
FTUS43 KLMK 031100 AAA
TAFBWG
TAF AMD
KBWG 031104Z 0311/0406 13005KT P6SM BKN015 BKN022
      TEMPO 0312/0314 6SM BR BKN008
     FM031400 16009KT 3SM BR VCSH BKN008
     FM031700 20013G18KT 5SM -SHRA BKN010
     FM040000 22011KT 2SM -RA BR BKN004=



000
FTUS43 KLMK 031000 AAA
TAFSDF
TAF AMD
KSDF 031053Z 0311/0412 14006KT P6SM SCT025 BKN035
      TEMPO 0311/0312 BKN025
     FM031200 15007KT 6SM BR VCSH BKN015
      TEMPO 0313/0317 4SM -SHRA BR BKN008
     FM031700 20012G17KT 3SM -SHRA BR BKN008
     FM040100 23012KT 2SM -RA BR BKN005
     FM040600 31010KT 5SM -RA BR BKN008=



000
FTUS43 KLMK 031000 AAA
TAFSDF
TAF AMD
KSDF 031053Z 0311/0412 14006KT P6SM SCT025 BKN035
      TEMPO 0311/0312 BKN025
     FM031200 15007KT 6SM BR VCSH BKN015
      TEMPO 0313/0317 4SM -SHRA BR BKN008
     FM031700 20012G17KT 3SM -SHRA BR BKN008
     FM040100 23012KT 2SM -RA BR BKN005
     FM040600 31010KT 5SM -RA BR BKN008=



    US Dept of Commerce
    National Oceanic and Atmospheric Administration
    National Weather Service
    1325 East West Highway
    Silver Spring, MD 20910
    Page Author: NWS Internet Services Team
Disclaimer
Information Quality
Credits
Glossary
Privacy Policy
Freedom of Information Act (FOIA)
About Us
Career Opportunities